createdAt,value
2022-07-28T00:00:23.459Z,84.17
2022-07-28T00:01:25.752Z,84.28
2022-07-28T00:02:29.122Z,84.34
2022-07-28T00:03:31.647Z,84.52
2022-07-28T00:04:35.240Z,84.62
2022-07-28T00:05:37.441Z,84.72
2022-07-28T00:06:40.567Z,84.99
2022-07-28T00:07:42.705Z,84.79
2022-07-28T00:08:45.830Z,85.18
2022-07-28T00:09:47.997Z,85.08
2022-07-28T00:10:51.178Z,85.20
2022-07-28T00:11:54.922Z,85.53
2022-07-28T00:12:59.763Z,85.59
2022-07-28T00:14:01.929Z,85.56
2022-07-28T00:15:07.533Z,85.42
2022-07-28T00:16:09.988Z,85.66
2022-07-28T00:17:13.174Z,85.83
2022-07-28T00:18:15.318Z,85.92
2022-07-28T00:19:18.560Z,85.87
2022-07-28T00:20:21.406Z,85.78
2022-07-28T00:21:25.081Z,85.86
2022-07-28T00:22:27.282Z,85.92
2022-07-28T00:23:38.970Z,86.14
2022-07-28T00:24:41.996Z,86.19
2022-07-28T00:25:45.156Z,86.37
2022-07-28T00:26:47.396Z,86.72
2022-07-28T00:27:50.562Z,86.51
2022-07-28T00:28:52.746Z,86.42
2022-07-28T00:29:55.913Z,86.96
2022-07-28T00:31:05.584Z,86.79
2022-07-28T00:32:12.009Z,87.07
2022-07-28T00:33:14.467Z,87.01
2022-07-28T00:34:18.124Z,86.98
2022-07-28T00:35:30.387Z,87.29
2022-07-28T00:36:34.863Z,87.23
2022-07-28T00:37:39.676Z,87.63
2022-07-28T00:38:43.885Z,87.62
2022-07-28T00:39:46.547Z,87.50
2022-07-28T00:41:07.776Z,87.76
2022-07-28T00:42:12.272Z,87.95
2022-07-28T00:43:14.479Z,88.15
2022-07-28T00:44:18.201Z,87.61
2022-07-28T00:45:20.307Z,87.83
2022-07-28T00:46:25.244Z,88.38
2022-07-28T00:47:27.451Z,88.25
2022-07-28T00:48:39.099Z,88.07
2022-07-28T00:49:41.464Z,88.70
2022-07-28T00:50:45.805Z,88.64
2022-07-28T00:51:49.605Z,88.30
2022-07-28T00:52:52.097Z,88.37
2022-07-28T00:53:55.952Z,88.58
2022-07-28T00:54:58.923Z,88.43
2022-07-28T00:56:05.353Z,88.74
2022-07-28T00:57:09.684Z,88.65
2022-07-28T00:58:11.852Z,88.82
2022-07-28T00:59:15.006Z,88.92
2022-07-28T01:00:17.554Z,89.04
2022-07-28T01:01:21.502Z,89.17
2022-07-28T01:02:25.290Z,88.83
2022-07-28T01:03:29.352Z,88.86
2022-07-28T01:04:33.371Z,89.13
2022-07-28T01:05:44.457Z,88.82
2022-07-28T01:06:59.651Z,89.14
2022-07-28T01:08:08.066Z,89.35
2022-07-28T01:09:20.760Z,89.13
2022-07-28T01:10:34.058Z,89.35
2022-07-28T01:11:48.004Z,89.39
2022-07-28T01:12:58.674Z,89.62
2022-07-28T01:14:10.939Z,89.79
2022-07-28T01:15:20.415Z,89.45
2022-07-28T01:16:23.832Z,89.56
2022-07-28T01:17:37.178Z,89.81
2022-07-28T01:18:43.373Z,90.11
2022-07-28T01:19:51.760Z,89.90
2022-07-28T01:21:00.111Z,90.03
2022-07-28T01:22:05.402Z,89.86
2022-07-28T01:23:38.314Z,90.09
2022-07-28T01:24:52.766Z,89.72
2022-07-28T01:26:12.166Z,89.69
2022-07-28T01:27:37.051Z,89.88
2022-07-28T01:28:52.673Z,90.28
2022-07-28T01:30:05.264Z,90.09
2022-07-28T01:31:13.340Z,90.47
2022-07-28T01:32:21.935Z,90.29
2022-07-28T01:33:32.442Z,90.02
2022-07-28T01:34:41.337Z,90.17
2022-07-28T01:35:48.725Z,90.31
2022-07-28T01:36:55.197Z,90.60
2022-07-28T01:38:02.078Z,90.63
2022-07-28T01:39:04.297Z,90.23
2022-07-28T01:40:10.461Z,90.49
2022-07-28T01:41:19.225Z,90.41
2022-07-28T01:42:24.146Z,90.75
2022-07-28T01:43:29.820Z,90.93
2022-07-28T01:44:35.340Z,90.66
2022-07-28T01:45:41.205Z,90.79
2022-07-28T01:46:46.780Z,90.65
2022-07-28T01:47:51.880Z,90.72
2022-07-28T01:48:55.813Z,90.65
2022-07-28T01:50:02.785Z,91.13
2022-07-28T01:51:08.616Z,91.06
2022-07-28T01:52:10.802Z,90.77
2022-07-28T01:53:17.203Z,90.65
2022-07-28T01:54:23.099Z,90.83
2022-07-28T01:55:27.367Z,91.10
2022-07-28T01:56:32.779Z,90.69
2022-07-28T01:57:38.276Z,90.96
2022-07-28T01:58:43.431Z,90.76
2022-07-28T01:59:47.507Z,90.75
2022-07-28T02:00:52.365Z,90.47
2022-07-28T02:01:58.797Z,90.56
2022-07-28T02:03:03.815Z,90.71
2022-07-28T02:04:08.594Z,90.44
2022-07-28T02:05:13.928Z,90.44
2022-07-28T02:06:19.961Z,90.54
2022-07-28T02:07:25.226Z,90.25
2022-07-28T02:08:29.664Z,90.36
2022-07-28T02:09:33.560Z,90.49
2022-07-28T02:10:37.301Z,90.30
2022-07-28T02:11:42.401Z,90.23
2022-07-28T02:12:46.714Z,90.06
2022-07-28T02:13:51.283Z,90.25
2022-07-28T02:14:54.956Z,90.13
2022-07-28T02:15:58.295Z,90.12
2022-07-28T02:17:07.868Z,89.91
2022-07-28T02:18:12.691Z,89.94
2022-07-28T02:19:18.453Z,89.72
2022-07-28T02:20:23.744Z,89.99
2022-07-28T02:21:27.427Z,89.79
2022-07-28T02:22:31.992Z,89.87
2022-07-28T02:23:35.107Z,89.62
2022-07-28T02:24:39.446Z,90.06
2022-07-28T02:25:42.223Z,89.58
2022-07-28T02:26:49.798Z,89.54
2022-07-28T02:27:58.703Z,89.46
2022-07-28T02:29:04.690Z,89.64
2022-07-28T02:30:11.655Z,89.46
2022-07-28T02:31:21.214Z,89.67
2022-07-28T02:32:29.515Z,89.52
2022-07-28T02:33:58.534Z,89.54
2022-07-28T02:35:04.810Z,89.37
2022-07-28T02:36:12.575Z,89.27
2022-07-28T02:37:19.493Z,89.08
2022-07-28T02:38:27.173Z,89.20
2022-07-28T02:39:36.527Z,89.03
2022-07-28T02:40:42.279Z,89.28
2022-07-28T02:41:44.623Z,88.84
2022-07-28T02:42:50.869Z,89.09
2022-07-28T02:43:56.879Z,88.88
2022-07-28T02:45:03.256Z,88.79
2022-07-28T02:46:11.701Z,88.88
2022-07-28T02:47:20.848Z,88.88
2022-07-28T02:48:27.696Z,88.68
2022-07-28T02:49:33.879Z,88.90
2022-07-28T02:50:40.958Z,88.86
2022-07-28T02:51:45.377Z,88.86
2022-07-28T02:52:50.203Z,88.31
2022-07-28T02:53:54.168Z,88.66
2022-07-28T02:54:59.867Z,88.15
2022-07-28T02:56:03.497Z,88.39
2022-07-28T02:57:08.020Z,88.26
2022-07-28T02:58:11.383Z,88.02
2022-07-28T02:59:16.046Z,88.46
2022-07-28T03:00:18.718Z,88.20
2022-07-28T03:01:23.004Z,88.21
2022-07-28T03:02:30.772Z,88.42
2022-07-28T03:03:34.938Z,88.52
2022-07-28T03:04:58.921Z,88.68
2022-07-28T03:06:02.819Z,88.95
2022-07-28T03:07:05.266Z,88.71
2022-07-28T03:08:08.779Z,89.05
2022-07-28T03:09:11.171Z,88.63
2022-07-28T03:10:33.621Z,88.91
2022-07-28T03:11:36.850Z,88.95
2022-07-28T03:12:39.984Z,89.03
2022-07-28T03:13:42.271Z,88.85
2022-07-28T03:14:45.425Z,88.76
2022-07-28T03:15:47.658Z,88.80
2022-07-28T03:16:55.400Z,89.36
2022-07-28T03:17:59.121Z,89.09
2022-07-28T03:19:02.851Z,89.41
2022-07-28T03:20:07.618Z,88.97
2022-07-28T03:21:09.699Z,89.14
2022-07-28T03:22:12.970Z,88.98
2022-07-28T03:23:17.359Z,89.24
2022-07-28T03:24:21.408Z,89.00
2022-07-28T03:25:28.029Z,88.91
2022-07-28T03:26:39.086Z,89.18
2022-07-28T03:27:46.898Z,89.03
2022-07-28T03:28:52.619Z,89.02
2022-07-28T03:30:03.610Z,89.17
2022-07-28T03:31:09.858Z,89.15
2022-07-28T03:32:13.826Z,88.89
2022-07-28T03:33:17.250Z,88.93
2022-07-28T03:34:21.123Z,88.74
2022-07-28T03:35:25.271Z,88.81
2022-07-28T03:36:40.870Z,88.83
2022-07-28T03:37:57.076Z,88.83
2022-07-28T03:39:02.573Z,88.79
2022-07-28T03:40:09.243Z,88.50
2022-07-28T03:41:13.597Z,88.66
2022-07-28T03:42:19.184Z,88.66
2022-07-28T03:43:25.002Z,88.66
2022-07-28T03:44:28.962Z,88.60
2022-07-28T03:45:32.899Z,88.65
2022-07-28T03:46:35.987Z,88.15
2022-07-28T03:47:39.181Z,88.68
2022-07-28T03:48:41.381Z,88.22
2022-07-28T03:49:48.338Z,88.44
2022-07-28T03:50:50.457Z,88.46
2022-07-28T03:51:53.577Z,88.32
2022-07-28T03:52:56.671Z,88.32
2022-07-28T03:53:59.797Z,88.04
2022-07-28T03:55:02.049Z,88.15
2022-07-28T03:56:06.677Z,87.92
2022-07-28T03:57:08.780Z,87.95
2022-07-28T03:58:11.926Z,87.98
2022-07-28T03:59:14.119Z,87.78
2022-07-28T04:00:18.610Z,87.92
2022-07-28T04:01:20.767Z,87.95
2022-07-28T04:02:24.017Z,88.04
2022-07-28T04:03:42.512Z,87.86
2022-07-28T04:04:48.849Z,87.58
2022-07-28T04:05:51.101Z,87.97
2022-07-28T04:06:54.279Z,87.56
2022-07-28T04:07:56.433Z,87.73
2022-07-28T04:08:59.659Z,87.43
2022-07-28T04:10:01.824Z,87.69
2022-07-28T04:11:05.616Z,87.62
2022-07-28T04:12:08.555Z,87.65
2022-07-28T04:13:12.430Z,87.82
2022-07-28T04:14:16.941Z,87.85
2022-07-28T04:15:20.583Z,87.66
2022-07-28T04:16:22.873Z,87.58
2022-07-28T04:17:26.075Z,87.67
2022-07-28T04:18:28.244Z,88.01
2022-07-28T04:19:31.361Z,87.70
2022-07-28T04:20:35.009Z,87.45
2022-07-28T04:21:38.242Z,87.55
2022-07-28T04:22:40.562Z,87.55
2022-07-28T04:23:43.721Z,87.37
2022-07-28T04:24:45.849Z,87.68
2022-07-28T04:25:49.437Z,87.72
2022-07-28T04:26:51.554Z,87.79
2022-07-28T04:27:57.035Z,87.78
2022-07-28T04:29:03.264Z,87.80
2022-07-28T04:30:09.034Z,87.18
2022-07-28T04:31:13.045Z,87.42
2022-07-28T04:32:17.945Z,87.25
2022-07-28T04:33:20.463Z,87.32
2022-07-28T04:34:24.643Z,87.35
2022-07-28T04:35:28.362Z,87.27
2022-07-28T04:36:32.924Z,87.53
2022-07-28T04:37:35.393Z,87.47
2022-07-28T04:38:38.653Z,86.97
2022-07-28T04:39:41.338Z,86.96
2022-07-28T04:40:44.714Z,86.93
2022-07-28T04:41:47.410Z,87.03
2022-07-28T04:42:51.532Z,87.03
2022-07-28T04:43:53.689Z,86.46
2022-07-28T04:44:56.923Z,86.44
2022-07-28T04:45:59.136Z,86.78
2022-07-28T04:47:02.232Z,86.65
2022-07-28T04:48:08.454Z,86.73
2022-07-28T04:49:11.735Z,86.36
2022-07-28T04:50:16.040Z,86.31
2022-07-28T04:51:23.315Z,86.54
2022-07-28T04:52:27.135Z,86.44
2022-07-28T04:53:30.765Z,86.01
2022-07-28T04:54:32.935Z,86.06
2022-07-28T04:55:38.737Z,86.25
2022-07-28T04:56:41.917Z,85.99
2022-07-28T04:57:44.348Z,86.14
2022-07-28T04:58:48.667Z,86.03
2022-07-28T04:59:51.339Z,85.88
2022-07-28T05:00:55.641Z,85.67
2022-07-28T05:01:58.628Z,85.60
2022-07-28T05:03:02.710Z,85.41
2022-07-28T05:04:05.171Z,84.87
2022-07-28T05:05:09.020Z,84.95
2022-07-28T05:06:11.327Z,84.93
2022-07-28T05:07:14.459Z,84.39
2022-07-28T05:08:18.220Z,84.52
2022-07-28T05:09:21.865Z,84.62
2022-07-28T05:10:24.185Z,84.43
2022-07-28T05:11:27.329Z,84.54
2022-07-28T05:12:29.613Z,84.37
2022-07-28T05:13:34.438Z,84.44
2022-07-28T05:14:36.743Z,84.54
2022-07-28T05:15:39.886Z,84.43
2022-07-28T05:16:42.091Z,84.16
2022-07-28T05:17:45.942Z,84.02
2022-07-28T05:18:48.149Z,83.98
2022-07-28T05:19:51.420Z,83.92
2022-07-28T05:20:54.533Z,83.82
2022-07-28T05:21:56.661Z,83.43
2022-07-28T05:22:59.902Z,82.96
2022-07-28T05:24:03.728Z,82.78
2022-07-28T05:25:14.437Z,82.62
2022-07-28T05:26:16.387Z,82.38
2022-07-28T05:27:19.532Z,82.19
2022-07-28T05:28:21.675Z,81.61
2022-07-28T05:29:25.589Z,81.33
2022-07-28T05:30:40.839Z,81.15
2022-07-28T05:31:42.992Z,81.31
2022-07-28T05:32:46.382Z,80.67
2022-07-28T05:33:48.486Z,80.56
2022-07-28T05:34:52.118Z,80.47
2022-07-28T05:35:57.534Z,79.99
2022-07-28T05:37:02.308Z,79.59
2022-07-28T05:38:08.916Z,79.77
2022-07-28T05:39:16.221Z,79.65
2022-07-28T05:40:18.456Z,79.59
2022-07-28T05:41:22.054Z,79.13
2022-07-28T05:42:26.548Z,79.23
2022-07-28T05:43:29.680Z,79.52
2022-07-28T05:44:37.656Z,79.01
2022-07-28T05:45:41.588Z,79.08
2022-07-28T05:46:43.782Z,78.73
2022-07-28T05:47:48.121Z,78.69
2022-07-28T05:48:51.833Z,78.71
2022-07-28T05:49:55.089Z,78.30
2022-07-28T05:50:58.311Z,78.54
2022-07-28T05:52:00.401Z,78.44
2022-07-28T05:53:03.602Z,78.77
2022-07-28T05:54:06.055Z,78.71
2022-07-28T05:55:11.312Z,78.24
2022-07-28T05:56:14.441Z,78.48
2022-07-28T05:57:16.578Z,78.22
2022-07-28T05:58:22.680Z,78.45
2022-07-28T05:59:24.802Z,77.94
2022-07-28T06:00:28.439Z,77.93
2022-07-28T06:01:36.421Z,77.77
2022-07-28T06:02:39.905Z,77.66
2022-07-28T06:03:42.750Z,77.78
2022-07-28T06:04:46.436Z,77.54
2022-07-28T06:06:14.263Z,77.72
2022-07-28T06:07:13.767Z,77.50
2022-07-28T06:08:15.868Z,77.36
2022-07-28T06:09:19.008Z,77.43
2022-07-28T06:10:26.393Z,77.28
2022-07-28T06:11:29.532Z,76.88
2022-07-28T06:12:31.669Z,77.11
2022-07-28T06:13:34.869Z,76.71
2022-07-28T06:14:38.025Z,76.56
2022-07-28T06:15:40.219Z,76.16
2022-07-28T06:16:43.642Z,76.17
2022-07-28T06:17:45.862Z,76.18
2022-07-28T06:18:49.191Z,75.96
2022-07-28T06:19:52.298Z,76.10
2022-07-28T06:20:54.386Z,75.60
2022-07-28T06:21:57.620Z,75.83
2022-07-28T06:22:59.867Z,75.62
2022-07-28T06:24:03.032Z,75.60
2022-07-28T06:25:05.782Z,75.37
2022-07-28T06:26:10.282Z,75.25
2022-07-28T06:27:13.481Z,74.60
2022-07-28T06:28:16.642Z,74.31
2022-07-28T06:29:19.002Z,74.19
2022-07-28T06:30:22.560Z,74.17
2022-07-28T06:31:25.765Z,73.51
2022-07-28T06:32:28.971Z,73.34
2022-07-28T06:33:31.148Z,73.37
2022-07-28T06:34:34.229Z,73.29
2022-07-28T06:35:46.689Z,73.39
2022-07-28T06:36:54.340Z,73.07
2022-07-28T06:37:56.530Z,73.15
2022-07-28T06:38:59.702Z,72.27
2022-07-28T06:40:02.177Z,72.11
2022-07-28T06:41:05.500Z,71.82
2022-07-28T06:42:10.074Z,71.92
2022-07-28T06:43:14.525Z,71.75
2022-07-28T06:44:17.994Z,71.36
2022-07-28T06:45:21.834Z,71.33
2022-07-28T06:46:25.291Z,71.46
2022-07-28T06:47:27.503Z,70.95
2022-07-28T06:48:34.052Z,70.48
2022-07-28T06:49:36.253Z,70.41
2022-07-28T06:50:39.751Z,70.45
2022-07-28T06:51:42.965Z,69.80
2022-07-28T06:52:46.207Z,69.28
2022-07-28T06:53:48.931Z,69.11
2022-07-28T06:54:58.119Z,68.92
2022-07-28T06:56:00.620Z,69.29
2022-07-28T06:57:04.263Z,69.14
2022-07-28T06:58:07.953Z,68.54
2022-07-28T06:59:11.271Z,68.32
2022-07-28T07:00:14.317Z,68.25
2022-07-28T07:01:18.060Z,67.71
2022-07-28T07:02:23.889Z,67.54
2022-07-28T07:03:30.921Z,67.62
2022-07-28T07:04:33.981Z,67.36
2022-07-28T07:05:39.011Z,67.30
2022-07-28T07:06:42.195Z,67.80
2022-07-28T07:07:44.413Z,67.61
2022-07-28T07:08:50.754Z,67.19
2022-07-28T07:09:53.280Z,67.04
2022-07-28T07:10:56.930Z,66.90
2022-07-28T07:12:00.029Z,66.24
2022-07-28T07:13:04.251Z,66.38
2022-07-28T07:14:09.283Z,66.63
2022-07-28T07:15:12.165Z,66.42
2022-07-28T07:16:15.542Z,66.44
2022-07-28T07:17:18.111Z,66.70
2022-07-28T07:18:21.349Z,66.05
2022-07-28T07:19:23.511Z,65.57
2022-07-28T07:20:26.637Z,65.55
2022-07-28T07:21:29.786Z,64.92
2022-07-28T07:22:31.992Z,65.07
2022-07-28T07:23:35.966Z,64.70
2022-07-28T07:24:39.997Z,65.17
2022-07-28T07:25:43.422Z,64.90
2022-07-28T07:26:45.569Z,64.97
2022-07-28T07:27:49.125Z,64.65
2022-07-28T07:28:54.771Z,64.44
2022-07-28T07:29:58.342Z,64.35
2022-07-28T07:31:02.765Z,63.92
2022-07-28T07:32:10.410Z,64.08
2022-07-28T07:33:13.984Z,64.07
2022-07-28T07:34:16.718Z,64.00
2022-07-28T07:35:20.300Z,63.92
2022-07-28T07:36:23.124Z,63.73
2022-07-28T07:37:26.937Z,63.65
2022-07-28T07:38:36.829Z,63.74
2022-07-28T07:39:44.264Z,63.44
2022-07-28T07:40:46.423Z,62.86
2022-07-28T07:41:49.560Z,62.55
2022-07-28T07:42:52.520Z,62.28
2022-07-28T07:43:57.012Z,62.03
2022-07-28T07:45:01.685Z,61.78
2022-07-28T07:46:05.055Z,61.40
2022-07-28T07:47:09.497Z,61.16
2022-07-28T07:48:12.838Z,60.95
2022-07-28T07:49:17.139Z,61.10
2022-07-28T07:50:20.373Z,60.95
2022-07-28T07:51:23.610Z,60.78
2022-07-28T07:52:25.928Z,60.98
2022-07-28T07:53:29.167Z,60.66
2022-07-28T07:54:31.513Z,59.87
2022-07-28T07:55:37.759Z,59.90
2022-07-28T07:56:41.180Z,59.96
2022-07-28T07:57:44.402Z,59.73
2022-07-28T07:58:46.675Z,59.72
2022-07-28T07:59:50.377Z,59.97
2022-07-28T08:00:54.978Z,60.00
2022-07-28T08:01:57.385Z,60.15
2022-07-28T08:03:01.442Z,60.10
2022-07-28T08:04:03.869Z,60.08
2022-07-28T08:05:08.613Z,60.18
2022-07-28T08:06:13.493Z,60.44
2022-07-28T08:07:18.975Z,60.55
2022-07-28T08:08:25.606Z,60.49
2022-07-28T08:09:27.786Z,60.69
2022-07-28T08:10:30.925Z,60.48
2022-07-28T08:11:33.083Z,59.86
2022-07-28T08:12:36.501Z,59.90
2022-07-28T08:13:38.659Z,59.38
2022-07-28T08:14:41.935Z,59.10
2022-07-28T08:15:51.621Z,58.77
2022-07-28T08:16:56.814Z,58.28
2022-07-28T08:18:00.339Z,58.67
2022-07-28T08:19:02.871Z,58.58
2022-07-28T08:20:06.868Z,58.79
2022-07-28T08:21:09.040Z,58.60
2022-07-28T08:22:12.162Z,58.46
2022-07-28T08:23:16.282Z,58.51
2022-07-28T08:24:32.370Z,58.14
2022-07-28T08:25:38.148Z,57.91
2022-07-28T08:26:40.659Z,57.55
2022-07-28T08:27:43.995Z,57.72
2022-07-28T08:28:47.462Z,57.25
2022-07-28T08:29:49.679Z,56.98
2022-07-28T08:30:52.912Z,56.90
2022-07-28T08:31:56.606Z,56.99
2022-07-28T08:32:59.838Z,56.90
2022-07-28T08:34:03.840Z,56.71
2022-07-28T08:35:35.861Z,56.74
2022-07-28T08:36:39.341Z,56.92
2022-07-28T08:37:41.501Z,56.62
2022-07-28T08:38:44.736Z,56.79
2022-07-28T08:39:47.885Z,57.11
2022-07-28T08:40:51.907Z,57.20
2022-07-28T08:42:00.191Z,57.32
2022-07-28T08:43:10.460Z,57.00
2022-07-28T08:44:16.654Z,56.83
2022-07-28T08:45:21.747Z,56.53
2022-07-28T08:46:26.784Z,56.52
2022-07-28T08:47:40.575Z,56.41
2022-07-28T08:48:52.033Z,56.70
2022-07-28T08:49:54.946Z,56.62
2022-07-28T08:51:01.647Z,56.54
2022-07-28T08:52:05.176Z,56.25
2022-07-28T08:53:08.221Z,56.66
2022-07-28T08:54:17.457Z,56.26
2022-07-28T08:55:24.578Z,56.44
2022-07-28T08:56:39.437Z,56.37
2022-07-28T08:57:54.490Z,56.32
2022-07-28T08:59:03.854Z,56.17
2022-07-28T09:00:07.382Z,55.68
2022-07-28T09:01:11.212Z,55.65
2022-07-28T09:02:15.932Z,55.41
2022-07-28T09:03:21.077Z,55.07
2022-07-28T09:04:24.623Z,55.14
2022-07-28T09:05:27.556Z,53.95
2022-07-28T09:06:31.440Z,54.14
2022-07-28T09:07:34.759Z,53.62
2022-07-28T09:08:38.548Z,53.66
2022-07-28T09:09:40.804Z,53.86
2022-07-28T09:10:43.932Z,53.58
2022-07-28T09:11:46.039Z,53.88
2022-07-28T09:12:49.261Z,54.24
2022-07-28T09:13:54.037Z,54.22
2022-07-28T09:14:57.483Z,53.94
2022-07-28T09:16:00.212Z,53.46
2022-07-28T09:17:05.240Z,53.21
2022-07-28T09:18:08.042Z,53.21
2022-07-28T09:19:12.656Z,53.49
2022-07-28T09:20:17.513Z,53.96
2022-07-28T09:21:20.101Z,53.48
2022-07-28T09:22:23.441Z,52.68
2022-07-28T09:23:43.376Z,53.23
2022-07-28T09:24:48.522Z,53.46
2022-07-28T09:26:10.216Z,53.94
2022-07-28T09:27:16.403Z,54.28
2022-07-28T09:28:20.405Z,54.33
2022-07-28T09:29:24.979Z,54.38
2022-07-28T09:30:32.811Z,54.58
2022-07-28T09:31:35.047Z,54.66
2022-07-28T09:32:39.128Z,54.68
2022-07-28T09:33:53.460Z,54.72
2022-07-28T09:34:58.244Z,54.03
2022-07-28T09:36:00.789Z,54.15
2022-07-28T09:37:05.907Z,53.85
2022-07-28T09:38:08.103Z,53.51
2022-07-28T09:39:11.287Z,52.91
2022-07-28T09:40:14.589Z,52.90
2022-07-28T09:41:21.810Z,52.77
2022-07-28T09:42:25.879Z,52.55
2022-07-28T09:43:35.372Z,52.82
2022-07-28T09:44:38.541Z,52.74
2022-07-28T09:45:40.685Z,52.55
2022-07-28T09:46:43.987Z,52.71
2022-07-28T09:47:46.568Z,52.76
2022-07-28T09:48:55.808Z,52.82
2022-07-28T09:50:01.044Z,52.33
2022-07-28T09:51:13.812Z,51.69
2022-07-28T09:52:28.411Z,52.38
2022-07-28T09:53:30.567Z,52.07
2022-07-28T09:54:38.734Z,52.21
2022-07-28T09:55:54.818Z,51.81
2022-07-28T09:56:58.020Z,51.67
2022-07-28T09:58:09.325Z,51.96
2022-07-28T09:59:14.582Z,52.21
2022-07-28T10:00:27.909Z,51.79
2022-07-28T10:01:35.800Z,51.77
2022-07-28T10:02:39.998Z,51.97
2022-07-28T10:03:44.357Z,51.63
2022-07-28T10:04:51.735Z,51.85
2022-07-28T10:05:58.994Z,51.72
2022-07-28T10:07:03.537Z,51.89
2022-07-28T10:08:06.534Z,52.24
2022-07-28T10:09:14.398Z,52.20
2022-07-28T10:10:21.235Z,52.03
2022-07-28T10:11:26.928Z,51.94
2022-07-28T10:12:30.847Z,51.47
2022-07-28T10:13:34.147Z,51.04
2022-07-28T10:14:37.290Z,50.93
2022-07-28T10:15:58.055Z,50.88
2022-07-28T10:17:05.897Z,50.99
2022-07-28T10:18:09.421Z,51.26
2022-07-28T10:19:12.583Z,51.26
2022-07-28T10:20:16.613Z,50.89
2022-07-28T10:21:21.651Z,50.82
2022-07-28T10:22:27.839Z,50.63
2022-07-28T10:23:31.452Z,50.41
2022-07-28T10:24:38.006Z,50.78
2022-07-28T10:25:41.972Z,50.52
2022-07-28T10:26:46.914Z,50.15
2022-07-28T10:27:49.581Z,50.04
2022-07-28T10:28:55.219Z,50.33
2022-07-28T10:30:00.729Z,49.98
2022-07-28T10:31:05.085Z,49.82
2022-07-28T10:32:09.655Z,50.08
2022-07-28T10:33:15.366Z,50.13
2022-07-28T10:34:24.465Z,49.99
2022-07-28T10:35:28.820Z,50.33
2022-07-28T10:36:34.342Z,50.65
2022-07-28T10:37:46.661Z,51.03
2022-07-28T10:38:51.691Z,50.84
2022-07-28T10:40:06.515Z,51.03
2022-07-28T10:41:15.042Z,50.88
2022-07-28T10:42:18.758Z,51.12
2022-07-28T10:43:22.157Z,50.75
2022-07-28T10:44:26.065Z,50.38
2022-07-28T10:45:48.125Z,50.25
2022-07-28T10:46:52.951Z,50.74
2022-07-28T10:47:55.297Z,50.70
2022-07-28T10:48:59.766Z,50.83
2022-07-28T10:50:08.752Z,50.58
2022-07-28T10:51:11.933Z,50.33
2022-07-28T10:52:37.748Z,50.18
2022-07-28T10:53:46.727Z,50.39
2022-07-28T10:55:00.060Z,50.30
2022-07-28T10:56:07.555Z,50.36
2022-07-28T10:57:13.762Z,49.81
2022-07-28T10:58:25.468Z,49.35
2022-07-28T10:59:55.837Z,49.68
2022-07-28T11:01:05.950Z,49.87
2022-07-28T11:02:08.829Z,49.80
2022-07-28T11:03:13.947Z,50.00
2022-07-28T11:04:59.141Z,50.47
2022-07-28T11:06:26.569Z,50.26
2022-07-28T11:07:40.699Z,50.68
2022-07-28T11:08:42.955Z,50.87
2022-07-28T11:09:52.189Z,51.19
2022-07-28T11:11:07.479Z,51.26
2022-07-28T11:12:15.351Z,51.33
2022-07-28T11:13:33.216Z,51.87
2022-07-28T11:14:38.135Z,51.80
2022-07-28T11:15:43.407Z,51.93
2022-07-28T11:16:46.579Z,52.29
2022-07-28T11:17:59.731Z,52.72
2022-07-28T11:19:07.786Z,53.45
2022-07-28T11:21:07.969Z,54.01
2022-07-28T11:22:29.176Z,53.88
2022-07-28T11:23:55.031Z,54.35
2022-07-28T11:25:21.887Z,54.47
2022-07-28T11:26:38.211Z,54.78
2022-07-28T11:28:05.899Z,54.16
2022-07-28T11:29:18.898Z,54.60
2022-07-28T11:30:53.381Z,54.47
2022-07-28T11:32:05.360Z,53.63
2022-07-28T11:33:09.281Z,53.68
2022-07-28T11:34:12.997Z,53.72
2022-07-28T11:35:16.464Z,53.37
2022-07-28T11:36:20.220Z,53.60
2022-07-28T11:37:23.388Z,53.72
2022-07-28T11:38:26.410Z,53.59
2022-07-28T11:39:31.902Z,53.79
2022-07-28T11:40:47.248Z,53.33
2022-07-28T11:41:50.413Z,53.33
2022-07-28T11:43:13.537Z,52.92
2022-07-28T11:44:25.299Z,52.47
2022-07-28T11:45:37.587Z,52.48
2022-07-28T11:46:45.691Z,52.55
2022-07-28T11:48:09.383Z,52.05
2022-07-28T11:49:27.663Z,51.65
2022-07-28T11:50:31.145Z,52.20
2022-07-28T11:51:38.788Z,52.09
2022-07-28T11:52:56.709Z,52.16
2022-07-28T11:53:59.010Z,52.16
2022-07-28T11:55:04.554Z,52.26
2022-07-28T11:56:08.713Z,52.53
2022-07-28T11:57:12.125Z,52.68
2022-07-28T11:58:27.678Z,52.05
2022-07-28T11:59:49.717Z,51.96
2022-07-28T12:01:13.282Z,52.00
2022-07-28T12:02:17.544Z,52.06
2022-07-28T12:03:49.719Z,52.46
2022-07-28T12:04:59.835Z,52.67
2022-07-28T12:06:03.169Z,52.88
2022-07-28T12:07:06.770Z,52.84
2022-07-28T12:08:09.938Z,52.22
2022-07-28T12:09:13.465Z,52.13
2022-07-28T12:11:58.491Z,51.77
2022-07-28T12:13:03.882Z,52.07
2022-07-28T12:14:07.837Z,52.39
2022-07-28T12:15:16.089Z,52.45
2022-07-28T12:16:19.420Z,51.83
2022-07-28T12:17:22.201Z,51.35
2022-07-28T12:18:25.502Z,51.30
2022-07-28T12:19:32.588Z,50.99
2022-07-28T12:20:48.824Z,50.85
2022-07-28T12:21:52.881Z,51.00
2022-07-28T12:22:58.135Z,51.09
2022-07-28T12:24:01.793Z,51.13
2022-07-28T12:25:05.960Z,51.01
2022-07-28T12:26:40.705Z,51.01
2022-07-28T12:27:44.735Z,51.18
2022-07-28T12:28:51.636Z,52.02
2022-07-28T12:29:57.466Z,52.34
2022-07-28T12:31:11.384Z,52.63
2022-07-28T12:32:14.683Z,52.59
2022-07-28T12:33:17.915Z,52.41
2022-07-28T12:34:21.216Z,51.67
2022-07-28T12:35:28.879Z,51.06
2022-07-28T12:36:32.042Z,50.64
2022-07-28T12:37:34.280Z,50.18
2022-07-28T12:38:37.532Z,49.91
2022-07-28T12:39:43.242Z,50.15
2022-07-28T12:40:47.170Z,50.29
2022-07-28T12:42:00.426Z,49.86
2022-07-28T12:43:04.048Z,49.65
2022-07-28T12:44:06.254Z,49.07
2022-07-28T12:45:10.981Z,48.80
2022-07-28T12:46:13.183Z,48.78
2022-07-28T12:47:17.792Z,49.04
2022-07-28T12:48:20.303Z,49.02
2022-07-28T12:49:23.587Z,49.11
2022-07-28T12:50:26.738Z,48.85
2022-07-28T12:51:33.456Z,48.43
2022-07-28T12:52:37.257Z,48.15
2022-07-28T12:53:50.835Z,48.75
2022-07-28T12:54:56.569Z,48.23
2022-07-28T12:56:02.663Z,48.19
2022-07-28T12:57:07.440Z,48.37
2022-07-28T12:58:23.595Z,49.01
2022-07-28T12:59:32.933Z,49.16
2022-07-28T13:00:37.354Z,49.29
2022-07-28T13:01:50.620Z,49.45
2022-07-28T13:02:56.127Z,49.01
2022-07-28T13:03:58.594Z,48.29
2022-07-28T13:05:01.862Z,48.34
2022-07-28T13:06:10.740Z,47.84
2022-07-28T13:07:15.757Z,47.33
2022-07-28T13:08:18.951Z,47.04
2022-07-28T13:09:32.864Z,47.08
2022-07-28T13:10:46.027Z,46.51
2022-07-28T13:11:48.956Z,45.91
2022-07-28T13:13:03.970Z,46.74
2022-07-28T13:14:07.247Z,47.33
2022-07-28T13:15:16.920Z,47.50
2022-07-28T13:16:20.321Z,47.55
2022-07-28T13:17:25.587Z,47.12
2022-07-28T13:18:39.407Z,49.16
2022-07-28T13:19:43.610Z,48.41
2022-07-28T13:20:49.809Z,48.67
2022-07-28T13:22:01.589Z,49.12
2022-07-28T13:23:06.108Z,49.32
2022-07-28T13:24:13.180Z,49.69
2022-07-28T13:25:16.920Z,49.19
2022-07-28T13:26:19.096Z,48.82
2022-07-28T13:27:22.306Z,48.38
2022-07-28T13:28:27.987Z,48.73
2022-07-28T13:29:34.541Z,48.72
2022-07-28T13:30:37.901Z,48.46
2022-07-28T13:31:40.760Z,48.35
2022-07-28T13:32:44.086Z,48.26
2022-07-28T13:33:46.301Z,48.15
2022-07-28T13:34:49.717Z,47.82
2022-07-28T13:35:52.936Z,47.71
2022-07-28T13:36:56.992Z,47.71
2022-07-28T13:38:00.157Z,48.28
2022-07-28T13:39:02.350Z,48.45
2022-07-28T13:40:07.128Z,48.37
2022-07-28T13:41:10.334Z,48.45
2022-07-28T13:42:13.149Z,48.12
2022-07-28T13:43:17.106Z,48.28
2022-07-28T13:44:20.816Z,47.78
2022-07-28T13:45:24.135Z,47.79
2022-07-28T13:46:27.087Z,47.89
2022-07-28T13:47:35.516Z,47.42
2022-07-28T13:48:58.115Z,46.92
2022-07-28T13:50:03.232Z,46.53
2022-07-28T13:51:07.206Z,45.59
2022-07-28T13:52:12.827Z,45.02
2022-07-28T13:53:15.860Z,44.48
2022-07-28T13:54:19.874Z,42.78
2022-07-28T13:55:22.758Z,43.51
2022-07-28T13:56:26.387Z,43.17
2022-07-28T13:57:28.632Z,43.16
2022-07-28T13:58:32.004Z,43.84
2022-07-28T13:59:37.765Z,44.00
2022-07-28T14:00:41.109Z,44.28
2022-07-28T14:01:44.558Z,44.74
2022-07-28T14:02:52.273Z,45.22
2022-07-28T14:03:58.004Z,45.44
2022-07-28T14:05:01.669Z,45.42
2022-07-28T14:06:04.988Z,45.67
2022-07-28T14:07:07.319Z,45.71
2022-07-28T14:08:11.319Z,46.39
2022-07-28T14:09:18.163Z,46.23
2022-07-28T14:10:26.618Z,45.91